Aérodrome :
LOGIN :

S'inscrire | Disclaimer

   EN    FR    IT 

 










Légende :    VFR   VFR Marginal   IFR   IFR Intensif   IFR Très Intensif
Visi : 
Plafond : 
>= 8 km
>= 3000ft
5 à 8 km
1000 à 3000 ft
1500m à 5 km
500 à 1000 ft
800 à 1500m
200 à 500 ft
< 800m
< 200 ft
Symboles :   Orages  Brouillard  Fortes neiges  Fortes précipitations  Vent > 20 kt
SIGMETs :   Divers  Orages  Givrage  Turbulence  Onde Orograph.  Cendres Volcan.







- Altitude de l'aérodrome : 171 ft
- Code IATA : EGC
- Voir les cartes d'approche


LFBE - Bergerac

DERNIER METAR :
  • 212330Z AUTO 07003KT CAVOK 11/09 Q1011

METARs EXPIRÉS :
  • 212300Z AUTO 04005KT CAVOK 12/09 Q1011
  • 212230Z AUTO VRB02KT CAVOK 12/09 Q1012
  • 212200Z AUTO VRB01KT CAVOK 11/09 Q1012
  • 212130Z AUTO VRB02KT CAVOK 12/09 Q1012
  • 212100Z AUTO VRB01KT CAVOK 11/09 Q1012

TAF TAF LFBE
Valide du 22 à 00h jusqu'au 23 à 00h UTC


212300Z 2200/2224 04005KT CAVOK
BECMG 2209/2211 12010KT
PROB30
TEMPO 2211/2214 15015G25KT -SHRA BKN080TCU
BECMG 2217/2219 10005KT
Pas de NOTAMs connus pour ce terrain.



MET'MAP, la Météo Aéronautique d'un coup d'oeil ! - Copyright ORBIFLY Décembre 2007 - Disclaimer

ORBIFLY MET'MAP TEAM :

Programmation & Développement : Alexandra Zaïnal
Conception & Développement : Baudouin d'Aumeries
Co-Programmation & Développement : Marc-Olivier Méhu
Soutien technique & logistique : Manuel Goepfert

Contact : metmap@orbifly.com




SOURCES & CREDITS :

   NOAA